Time;durP1;ratioP1;P1;durP2;ratioP2;P2;SDS_P1;SDS_P2;PMS_P1;PMS_P2;Temp;Humidity;BMP_temperature;BMP_pressure;BME280_temperature;BME280_humidity;BME280_pressure;Samples;Min_cycle;Max_cycle;Signal;HPM_P1;HPM_P2
2021/10/22 00:02:57;;;;;;;2.13;1.15;;;;;;;;;;5003298;28;20041;-56
2021/10/22 00:05:43;;;;;;;;;;;;;;;;;;;;;
2021/10/22 00:08:25;;;;;;;2.65;1.35;;;;;;;;;;5090601;28;20056;-56
2021/10/22 00:10:57;;;;;;;2.70;1.27;;;;;;;;;;5071043;28;20060;-57
2021/10/22 00:13:40;;;;;;;2.00;1.20;;;;;;;;;;5090558;28;20037;-56
2021/10/22 00:16:16;;;;;;;1.80;1.20;;;;;;;;;;5091154;28;20032;-56
2021/10/22 00:21:42;;;;;;;5.05;1.38;;;;;;;;;;5090941;28;20039;-56
2021/10/22 00:24:34;;;;;;;;;;;;;;;;;;;;;
2021/10/22 00:27:32;;;;;;;1.88;1.02;;;;;;;;;;5075094;28;20056;-57
2021/10/22 00:30:09;;;;;;;3.88;1.35;;;;;;;;;;5028621;28;20397;-55
2021/10/22 00:33:13;;;;;;;4.30;1.20;;;;;;;;;;5090824;28;20025;-57
2021/10/22 00:35:43;;;;;;;3.20;1.45;;;;;;;;;;5090288;28;20029;-57
2021/10/22 00:38:24;;;;;;;2.67;1.38;;;;;;;;;;5090997;28;20031;-57
2021/10/22 00:46:39;;;;;;;3.08;1.45;;;;;;;;;;5061286;28;20035;-57
2021/10/22 00:52:35;;;;;;;2.05;1.08;;;;;;;;;;5008872;28;20034;-55
2021/10/22 00:55:22;;;;;;;3.88;1.45;;;;;;;;;;5066466;28;20033;-56
2021/10/22 00:57:51;;;;;;;6.03;1.10;;;;;;;;;;5090164;28;20023;-57
2021/10/22 01:00:31;;;;;;;1.85;0.77;;;;;;;;;;5072761;28;20079;-56
2021/10/22 01:05:53;;;;;;;1.65;0.90;;;;;;;;;;5078914;28;20036;-57
2021/10/22 01:09:12;;;;;;;2.45;1.00;;;;;;;;;;5090026;28;20454;-57
2021/10/22 01:11:51;;;;;;;4.30;1.92;;;;;;;;;;5080232;28;20043;-56
2021/10/22 01:14:37;;;;;;;2.13;1.10;;;;;;;;;;5090035;28;20433;-56
2021/10/22 01:17:37;;;;;;;2.13;1.10;;;;;;;;;;5089786;28;20443;-56
2021/10/22 01:20:39;;;;;;;2.97;1.23;;;;;;;;;;5069696;28;20040;-55
2021/10/22 01:23:22;;;;;;;1.23;0.65;;;;;;;;;;5089576;28;20031;-55
2021/10/22 01:31:58;;;;;;;4.38;1.45;;;;;;;;;;5086127;28;20043;-56
2021/10/22 01:34:34;;;;;;;4.85;1.33;;;;;;;;;;5089007;28;20575;-56
2021/10/22 01:37:23;;;;;;;3.92;1.50;;;;;;;;;;5070701;28;20032;-55
2021/10/22 01:40:04;;;;;;;3.03;1.40;;;;;;;;;;5055022;28;20074;-57
2021/10/22 01:42:41;;;;;;;7.30;1.63;;;;;;;;;;5069106;28;20045;-56
2021/10/22 01:45:17;;;;;;;1.98;1.60;;;;;;;;;;5089274;28;20050;-54
2021/10/22 01:47:53;;;;;;;6.70;1.30;;;;;;;;;;5088938;28;20382;-56
2021/10/22 01:53:21;;;;;;;2.97;1.10;;;;;;;;;;5089236;28;20031;-56
2021/10/22 01:56:06;;;;;;;;;;;;;;;;;;;;;
2021/10/22 01:58:53;;;;;;;1.75;0.85;;;;;;;;;;5015402;28;20073;-57
2021/10/22 02:01:48;;;;;;;4.13;0.93;;;;;;;;;;5010667;28;20033;-56
2021/10/22 02:04:56;;;;;;;2.55;1.65;;;;;;;;;;5024664;28;20061;-57
2021/10/22 02:07:28;;;;;;;2.70;1.08;;;;;;;;;;4990397;28;20041;-56
2021/10/22 02:10:18;;;;;;;2.88;1.25;;;;;;;;;;5028160;28;20030;-57
2021/10/22 02:13:20;;;;;;;1.80;1.10;;;;;;;;;;5015741;28;20439;-56
2021/10/22 02:16:13;;;;;;;8.90;1.38;;;;;;;;;;4986614;28;20122;-57
2021/10/22 02:21:56;;;;;;;1.27;0.88;;;;;;;;;;4968366;29;20075;-57
2021/10/22 02:24:53;;;;;;;4.65;1.40;;;;;;;;;;4968534;29;20082;-55
2021/10/22 02:27:29;;;;;;;2.10;1.10;;;;;;;;;;5012528;28;20056;-56
2021/10/22 02:30:10;;;;;;;2.05;1.02;;;;;;;;;;5075965;28;20052;-57
2021/10/22 02:32:49;;;;;;;4.70;1.95;;;;;;;;;;5063722;28;20041;-57
2021/10/22 02:35:24;;;;;;;4.95;1.23;;;;;;;;;;5070597;28;20123;-57
2021/10/22 02:38:02;;;;;;;3.92;0.95;;;;;;;;;;5088883;28;20024;-57
2021/10/22 02:40:55;;;;;;;;;;;;;;;;;;;;;
2021/10/22 02:43:25;;;;;;;3.25;1.33;;;;;;;;;;5088901;28;20068;-57
2021/10/22 02:46:14;;;;;;;1.92;0.93;;;;;;;;;;5088610;28;20036;-55
2021/10/22 02:49:14;;;;;;;1.42;0.98;;;;;;;;;;5069518;28;20055;-56
2021/10/22 02:52:12;;;;;;;8.60;1.83;;;;;;;;;;5058921;28;20036;-56
2021/10/22 02:54:57;;;;;;;1.67;0.98;;;;;;;;;;5081673;28;20279;-57
2021/10/22 03:00:42;;;;;;;;;;;;;;;;;;;;;
2021/10/22 03:03:21;;;;;;;3.00;1.08;;;;;;;;;;5088317;28;20063;-57
2021/10/22 03:06:06;;;;;;;5.20;1.35;;;;;;;;;;5088294;28;20051;-55
2021/10/22 03:08:56;;;;;;;3.85;1.20;;;;;;;;;;5088485;28;20075;-56
2021/10/22 03:11:41;;;;;;;6.43;1.60;;;;;;;;;;5087883;28;20035;-56
2021/10/22 03:14:41;;;;;;;3.67;1.42;;;;;;;;;;5087911;28;20088;-56
2021/10/22 03:17:34;;;;;;;9.30;2.30;;;;;;;;;;5088013;28;20016;-57
2021/10/22 03:23:56;;;;;;;17.73;2.10;;;;;;;;;;5088096;28;20040;-56
2021/10/22 03:28:57;;;;;;;5.88;1.48;;;;;;;;;;5048738;28;20033;-56
2021/10/22 03:31:44;;;;;;;3.13;1.40;;;;;;;;;;5060943;28;20040;-57
2021/10/22 03:34:23;;;;;;;1.83;0.98;;;;;;;;;;5073505;28;20150;-54
2021/10/22 03:37:16;;;;;;;4.93;1.73;;;;;;;;;;5072809;28;20082;-52
2021/10/22 03:40:01;;;;;;;6.30;1.13;;;;;;;;;;5068932;28;20502;-56
2021/10/22 03:42:34;;;;;;;6.53;1.75;;;;;;;;;;5054603;28;20036;-56
2021/10/22 03:45:19;;;;;;;5.80;1.17;;;;;;;;;;5076786;28;20047;-56
2021/10/22 03:48:16;;;;;;;5.38;1.65;;;;;;;;;;5071244;28;20367;-54
2021/10/22 03:50:54;;;;;;;9.63;2.10;;;;;;;;;;5075767;28;20064;-54
2021/10/22 03:56:16;;;;;;;3.63;1.48;;;;;;;;;;5076258;28;20428;-53
2021/10/22 03:59:18;;;;;;;6.28;1.60;;;;;;;;;;5076402;28;20032;-54
2021/10/22 04:02:07;;;;;;;6.07;1.90;;;;;;;;;;4974935;28;20109;-57
2021/10/22 04:04:53;;;;;;;8.18;1.63;;;;;;;;;;5007452;28;20042;-53
2021/10/22 04:07:41;;;;;;;7.55;3.80;;;;;;;;;;5076772;28;20096;-54
2021/10/22 04:16:38;;;;;;;2.85;1.08;;;;;;;;;;5063124;28;20119;-54
2021/10/22 04:19:17;;;;;;;7.35;1.67;;;;;;;;;;5057721;28;20033;-56
2021/10/22 04:24:45;;;;;;;5.18;1.85;;;;;;;;;;5076664;28;20108;-55
2021/10/22 04:27:35;;;;;;;7.18;1.35;;;;;;;;;;5073363;28;20029;-57
2021/10/22 04:30:13;;;;;;;3.15;1.15;;;;;;;;;;5043206;28;20470;-57
2021/10/22 04:36:16;;;;;;;6.22;1.48;;;;;;;;;;4972483;28;20038;-56
2021/10/22 04:44:59;;;;;;;4.60;1.42;;;;;;;;;;5034245;28;20048;-56
2021/10/22 04:51:22;;;;;;;;;;;;;;;;;;;;;
2021/10/22 04:53:44;;;;;;;5.78;1.88;;;;;;;;;;5027840;28;20041;-57
2021/10/22 04:56:26;;;;;;;3.53;1.40;;;;;;;;;;5033683;28;20033;-57
2021/10/22 04:59:12;;;;;;;;;;;;;;;;;;;;;
2021/10/22 05:02:09;;;;;;;;;;;;;;;;;;;;;
2021/10/22 05:04:59;;;;;;;5.25;2.55;;;;;;;;;;5034200;28;20434;-57
2021/10/22 05:07:49;;;;;;;2.60;0.88;;;;;;;;;;5017162;28;20034;-57
2021/10/22 05:10:43;;;;;;;6.88;1.60;;;;;;;;;;5063898;28;20063;-57
2021/10/22 05:13:37;;;;;;;7.00;1.67;;;;;;;;;;5075298;28;20041;-57
2021/10/22 05:16:31;;;;;;;2.13;1.27;;;;;;;;;;5067347;28;20527;-57
2021/10/22 05:25:02;;;;;;;;;;;;;;;;;;;;;
2021/10/22 05:31:04;;;;;;;4.90;1.63;;;;;;;;;;5037144;28;20044;-56
2021/10/22 05:36:49;;;;;;;;;;;;;;;;;;;;;
2021/10/22 05:42:10;;;;;;;4.07;1.60;;;;;;;;;;5068686;28;20040;-56
2021/10/22 05:50:56;;;;;;;3.30;0.98;;;;;;;;;;4945837;28;19913;-57
2021/10/22 05:53:49;;;;;;;8.50;1.85;;;;;;;;;;4993312;28;20607;-56
2021/10/22 05:56:27;;;;;;;;;;;;;;;;;;;;;
2021/10/22 05:59:20;;;;;;;3.90;2.05;;;;;;;;;;5074682;28;20028;-57
2021/10/22 06:01:57;;;;;;;5.22;1.55;;;;;;;;;;5042757;28;20525;-57
2021/10/22 06:05:03;;;;;;;3.30;1.30;;;;;;;;;;5069889;28;20061;-58
2021/10/22 06:07:39;;;;;;;3.78;1.35;;;;;;;;;;5045134;28;20508;-57
2021/10/22 06:13:42;;;;;;;9.18;2.20;;;;;;;;;;4992637;28;20429;-55
2021/10/22 06:16:23;;;;;;;3.00;1.63;;;;;;;;;;4993029;28;20034;-57
2021/10/22 06:19:21;;;;;;;;;;;;;;;;;;;;;
2021/10/22 06:25:21;;;;;;;;;;;;;;;;;;;;;
2021/10/22 06:31:04;;;;;;;5.18;2.65;;;;;;;;;;5013525;28;20120;-56
2021/10/22 06:36:46;;;;;;;6.43;1.67;;;;;;;;;;4965888;28;20171;-55
2021/10/22 06:42:22;;;;;;;5.63;2.08;;;;;;;;;;5003685;28;20065;-57
2021/10/22 06:45:13;;;;;;;3.33;1.98;;;;;;;;;;4993336;28;20053;-55
2021/10/22 06:51:11;;;;;;;5.40;3.45;;;;;;;;;;5011804;28;20038;-56
2021/10/22 06:53:47;;;;;;;5.82;2.35;;;;;;;;;;5011984;28;20088;-56
2021/10/22 06:57:05;;;;;;;5.55;1.98;;;;;;;;;;5013026;28;20029;-57
2021/10/22 06:59:47;;;;;;;;;;;;;;;;;;;;;
2021/10/22 07:02:19;;;;;;;5.13;1.63;;;;;;;;;;5012288;28;20033;-57
2021/10/22 07:05:11;;;;;;;5.07;2.70;;;;;;;;;;5019428;28;20037;-58
2021/10/22 07:13:50;;;;;;;5.40;3.03;;;;;;;;;;4999166;28;20348;-55
2021/10/22 07:16:29;;;;;;;6.10;2.55;;;;;;;;;;5036363;28;20534;-56
2021/10/22 07:19:30;;;;;;;3.72;2.17;;;;;;;;;;5057540;28;20390;-56
2021/10/22 07:22:46;;;;;;;8.13;3.00;;;;;;;;;;5057647;28;20036;-58
2021/10/22 07:28:13;;;;;;;14.82;3.00;;;;;;;;;;4996007;28;20054;-57
2021/10/22 07:34:15;;;;;;;11.02;2.38;;;;;;;;;;4973983;28;20030;-58
2021/10/22 07:37:30;;;;;;;6.20;2.00;;;;;;;;;;4995921;28;20058;-58
2021/10/22 07:40:25;;;;;;;15.45;3.72;;;;;;;;;;4971297;28;20494;-58
2021/10/22 07:42:57;;;;;;;4.43;2.10;;;;;;;;;;4922624;29;20375;-58
2021/10/22 07:45:44;;;;;;;3.33;2.63;;;;;;;;;;4961818;28;20523;-56
2021/10/22 07:48:28;;;;;;;13.30;3.75;;;;;;;;;;4963600;28;20547;-54
2021/10/22 07:51:05;;;;;;;3.58;2.53;;;;;;;;;;4995588;28;20487;-59
2021/10/22 07:53:40;;;;;;;6.80;2.78;;;;;;;;;;5057847;28;20025;-56
2021/10/22 07:59:30;;;;;;;7.60;2.28;;;;;;;;;;5034090;28;20087;-57
2021/10/22 08:02:16;;;;;;;9.80;2.63;;;;;;;;;;5042062;28;20033;-57
2021/10/22 08:05:00;;;;;;;10.20;2.60;;;;;;;;;;5061120;28;20029;-56
2021/10/22 08:07:50;;;;;;;6.45;1.90;;;;;;;;;;5056385;28;20021;-58
2021/10/22 08:10:42;;;;;;;10.50;3.40;;;;;;;;;;5056627;28;20032;-57
2021/10/22 08:19:16;;;;;;;6.55;2.22;;;;;;;;;;5056407;28;20071;-57
2021/10/22 08:24:44;;;;;;;5.32;2.35;;;;;;;;;;5056278;28;20020;-58
2021/10/22 08:27:45;;;;;;;7.13;2.45;;;;;;;;;;5056582;28;20489;-58
2021/10/22 08:30:37;;;;;;;10.77;2.55;;;;;;;;;;5050887;28;20040;-58
2021/10/22 08:33:12;;;;;;;16.05;2.50;;;;;;;;;;5036684;28;20049;-57
2021/10/22 08:36:00;;;;;;;6.38;1.15;;;;;;;;;;5037722;28;20482;-58
2021/10/22 08:38:35;;;;;;;2.85;1.58;;;;;;;;;;5038659;28;20451;-58
2021/10/22 08:46:56;;;;;;;6.90;1.63;;;;;;;;;;5075557;28;20470;-58
2021/10/22 08:52:47;;;;;;;;;;;;;;;;;;;;;
2021/10/22 08:55:26;;;;;;;7.47;2.05;;;;;;;;;;5057607;28;20036;-58
2021/10/22 08:58:30;;;;;;;7.93;2.20;;;;;;;;;;5075792;28;20028;-58
2021/10/22 09:01:35;;;;;;;;;;;;;;;;;;;;;
2021/10/22 09:10:26;;;;;;;;;;;;;;;;;;;;;
2021/10/22 09:13:08;;;;;;;3.80;1.80;;;;;;;;;;4974532;28;20396;-58
2021/10/22 09:16:06;;;;;;;2.50;1.27;;;;;;;;;;4974383;28;20089;-56
2021/10/22 09:24:26;;;;;;;6.15;1.90;;;;;;;;;;5074838;28;20416;-56
2021/10/22 09:30:04;;;;;;;6.63;1.50;;;;;;;;;;5075052;28;20093;-57
2021/10/22 09:38:40;;;;;;;6.07;2.33;;;;;;;;;;5075065;28;20058;-58
2021/10/22 09:44:54;;;;;;;4.60;1.30;;;;;;;;;;4993022;28;20058;-57
2021/10/22 09:50:52;;;;;;;3.63;1.20;;;;;;;;;;5051911;28;20098;-57
2021/10/22 09:53:40;;;;;;;2.97;1.52;;;;;;;;;;5074755;28;20052;-58
2021/10/22 10:00:04;;;;;;;;;;;;;;;;;;;;;
2021/10/22 10:02:50;;;;;;;8.25;1.30;;;;;;;;;;5053986;28;20107;-58
2021/10/22 10:05:56;;;;;;;3.00;1.25;;;;;;;;;;5075611;28;20051;-58
2021/10/22 10:11:33;;;;;;;6.88;1.30;;;;;;;;;;5075224;28;20082;-57
2021/10/22 10:14:33;;;;;;;;;;;;;;;;;;;;;
2021/10/22 10:20:06;;;;;;;3.10;1.05;;;;;;;;;;5076513;28;20103;-58
2021/10/22 10:22:47;;;;;;;2.05;0.70;;;;;;;;;;5078989;28;20020;-58
2021/10/22 10:25:13;;;;;;;;;;;;;;;;;;5072892;28;20032;-57
2021/10/22 10:29:19;;;;;;;2.80;0.90;;;;;;;;;;5074050;28;19905;-56
2021/10/22 10:31:45;;;;;;;6.53;0.90;;;;;;;;;;4968794;28;20046;-57
2021/10/22 10:34:51;;;;;;;2.80;0.93;;;;;;;;;;4956838;28;20069;-55
2021/10/22 10:37:52;;;;;;;2.47;1.00;;;;;;;;;;4970171;28;20497;-58
2021/10/22 10:40:41;;;;;;;3.13;0.90;;;;;;;;;;4915563;29;20036;-58
2021/10/22 10:43:35;;;;;;;1.80;0.60;;;;;;;;;;4993080;28;20040;-58
2021/10/22 10:46:25;;;;;;;5.45;1.27;;;;;;;;;;5053961;28;20119;-56
2021/10/22 10:49:17;;;;;;;2.97;1.27;;;;;;;;;;5035579;28;20068;-58
2021/10/22 10:51:55;;;;;;;3.83;1.67;;;;;;;;;;5037127;28;20033;-58
2021/10/22 10:54:48;;;;;;;;;;;;;;;;;;;;;
2021/10/22 10:57:56;;;;;;;9.27;1.40;;;;;;;;;;5056868;28;20027;-58
2021/10/22 11:00:40;;;;;;;4.18;1.35;;;;;;;;;;5016287;28;20507;-58
2021/10/22 11:04:06;;;;;;;2.42;0.65;;;;;;;;;;5014425;28;20026;-58
2021/10/22 11:06:53;;;;;;;2.55;0.75;;;;;;;;;;4957750;29;20035;-57
2021/10/22 11:09:44;;;;;;;2.17;0.75;;;;;;;;;;4941355;29;20042;-58
2021/10/22 11:12:12;;;;;;;;;;;;;;;;;;4941862;29;20089;-58
2021/10/22 11:18:08;;;;;;;1.23;0.50;;;;;;;;;;4954393;29;20545;-58
2021/10/22 11:20:59;;;;;;;5.88;0.98;;;;;;;;;;4957312;29;20098;-58
2021/10/22 11:26:35;;;;;;;0.95;0.50;;;;;;;;;;5035431;28;20033;-58
2021/10/22 11:29:25;;;;;;;2.60;0.60;;;;;;;;;;5035946;28;20025;-57
2021/10/22 11:32:14;;;;;;;3.45;0.63;;;;;;;;;;5036279;28;20099;-58
2021/10/22 11:37:50;;;;;;;1.83;0.90;;;;;;;;;;5035203;28;20083;-58
2021/10/22 11:40:31;;;;;;;1.67;0.57;;;;;;;;;;5018976;28;20053;-58
2021/10/22 11:46:25;;;;;;;2.15;0.65;;;;;;;;;;5051713;28;20049;-58
2021/10/22 11:49:39;;;;;;;1.35;0.50;;;;;;;;;;5074306;28;20492;-58
2021/10/22 11:55:32;;;;;;;1.50;0.65;;;;;;;;;;5063794;28;20029;-58
2021/10/22 11:58:37;;;;;;;3.97;1.15;;;;;;;;;;5041021;28;20116;-56
2021/10/22 12:01:40;;;;;;;1.92;0.45;;;;;;;;;;4959663;28;20031;-58
2021/10/22 12:04:34;;;;;;;3.40;0.70;;;;;;;;;;5057138;28;20035;-58
2021/10/22 12:10:47;;;;;;;;;;;;;;;;;;;;;
2021/10/22 12:13:31;;;;;;;2.67;0.70;;;;;;;;;;5061420;28;20115;-58
2021/10/22 12:19:12;;;;;;;;;;;;;;;;;;;;;
2021/10/22 12:22:23;;;;;;;2.40;0.65;;;;;;;;;;5076914;28;20456;-58
2021/10/22 12:34:29;;;;;;;;;;;;;;;;;;5015449;28;19905;-57
2021/10/22 12:40:24;;;;;;;3.30;0.70;;;;;;;;;;4990195;28;20042;-56
2021/10/22 12:43:10;;;;;;;4.85;0.63;;;;;;;;;;4971934;28;20110;-56
2021/10/22 12:45:58;;;;;;;2.53;1.27;;;;;;;;;;4973963;28;20127;-57
2021/10/22 12:48:26;;;;;;;1.48;0.85;;;;;;;;;;5008015;28;20033;-58
2021/10/22 12:51:14;;;;;;;7.30;1.23;;;;;;;;;;5089988;28;20025;-58
2021/10/22 12:57:40;;;;;;;4.05;0.98;;;;;;;;;;4970343;28;20094;-58
2021/10/22 13:00:39;;;;;;;1.80;0.80;;;;;;;;;;4973913;28;20034;-58
2021/10/22 13:09:20;;;;;;;2.50;0.98;;;;;;;;;;5047949;28;20075;-58
2021/10/22 13:14:55;;;;;;;1.52;0.65;;;;;;;;;;5067661;28;20120;-57
2021/10/22 13:20:58;;;;;;;2.10;0.63;;;;;;;;;;5065273;28;20410;-58
2021/10/22 13:23:32;;;;;;;2.65;0.88;;;;;;;;;;5062738;28;20067;-58
2021/10/22 13:26:10;;;;;;;1.77;0.73;;;;;;;;;;5068292;28;20033;-58
2021/10/22 13:32:20;;;;;;;3.63;0.82;;;;;;;;;;5067069;28;20067;-58
2021/10/22 13:35:32;;;;;;;1.02;0.40;;;;;;;;;;5065509;28;20033;-58
2021/10/22 13:41:26;;;;;;;4.78;0.40;;;;;;;;;;5008710;28;20102;-58
2021/10/22 13:47:12;;;;;;;;;;;;;;;;;;5089221;28;20043;-58
2021/10/22 13:49:45;;;;;;;6.43;1.08;;;;;;;;;;5089430;28;19916;-58
2021/10/22 13:52:29;;;;;;;2.95;1.45;;;;;;;;;;5089419;28;20093;-58
2021/10/22 13:55:36;;;;;;;1.75;0.70;;;;;;;;;;5089523;28;20028;-58
2021/10/22 13:58:11;;;;;;;7.15;1.70;;;;;;;;;;5044353;28;20055;-59
2021/10/22 14:01:01;;;;;;;7.00;0.88;;;;;;;;;;5087268;28;20048;-58
2021/10/22 14:03:51;;;;;;;6.13;0.90;;;;;;;;;;5068581;28;20036;-56
2021/10/22 14:09:40;;;;;;;4.75;0.93;;;;;;;;;;5088508;28;19930;-57
2021/10/22 14:15:46;;;;;;;7.03;1.08;;;;;;;;;;4988011;28;20041;-57
2021/10/22 14:30:09;;;;;;;2.75;0.82;;;;;;;;;;5089227;28;20095;-57
2021/10/22 14:32:36;;;;;;;3.15;0.73;;;;;;;;;;5071333;28;20059;-56
2021/10/22 14:35:27;;;;;;;1.95;0.80;;;;;;;;;;5089000;28;20025;-56
2021/10/22 14:41:28;;;;;;;3.30;1.17;;;;;;;;;;5062048;28;20040;-55
2021/10/22 14:50:25;;;;;;;3.95;1.15;;;;;;;;;;5054245;28;20394;-57
2021/10/22 14:53:13;;;;;;;;;;;;;;;;;;5009362;28;20052;-58
2021/10/22 14:56:01;;;;;;;8.35;1.00;;;;;;;;;;5054528;28;19983;-57
2021/10/22 14:58:40;;;;;;;4.35;1.27;;;;;;;;;;5054739;28;20355;-56
2021/10/22 15:01:46;;;;;;;6.15;1.15;;;;;;;;;;5054454;28;20033;-57
2021/10/22 15:04:25;;;;;;;2.88;1.02;;;;;;;;;;5013373;28;20124;-57
2021/10/22 15:07:17;;;;;;;2.88;1.13;;;;;;;;;;5055094;28;20074;-58
2021/10/22 15:10:02;;;;;;;3.42;1.38;;;;;;;;;;5053767;28;20546;-57
2021/10/22 15:12:48;;;;;;;4.95;0.73;;;;;;;;;;5047122;28;20096;-57
2021/10/22 15:15:38;;;;;;;5.55;1.52;;;;;;;;;;5035451;28;20029;-57
2021/10/22 15:18:12;;;;;;;3.15;0.60;;;;;;;;;;5054705;28;20075;-56
2021/10/22 15:20:52;;;;;;;4.60;0.88;;;;;;;;;;5013072;28;20088;-57
2021/10/22 15:23:32;;;;;;;2.80;0.97;;;;;;;;;;5019790;28;20527;-57
2021/10/22 15:26:07;;;;;;;3.38;0.68;;;;;;;;;;5011568;28;20265;-56
2021/10/22 15:29:26;;;;;;;;;;;;;;;;;;;;;
2021/10/22 15:32:28;;;;;;;2.58;0.77;;;;;;;;;;5012275;28;20401;-57
2021/10/22 15:34:53;;;;;;;3.75;1.10;;;;;;;;;;5010428;28;20069;-57
2021/10/22 15:37:44;;;;;;;3.08;0.80;;;;;;;;;;5011462;28;20064;-57
2021/10/22 15:40:55;;;;;;;1.63;0.80;;;;;;;;;;5015388;28;20045;-55
2021/10/22 15:43:28;;;;;;;3.97;1.45;;;;;;;;;;5015410;28;20430;-56
2021/10/22 15:46:13;;;;;;;2.33;0.95;;;;;;;;;;5028774;28;20518;-57
2021/10/22 15:48:49;;;;;;;0.93;0.63;;;;;;;;;;5016931;28;20038;-57
2021/10/22 15:55:12;;;;;;;4.15;1.13;;;;;;;;;;5076507;28;20044;-57
2021/10/22 15:57:57;;;;;;;5.60;1.25;;;;;;;;;;4979985;28;20469;-57
2021/10/22 16:00:35;;;;;;;3.08;1.00;;;;;;;;;;5077628;28;20041;-56
2021/10/22 16:18:12;;;;;;;2.53;1.00;;;;;;;;;;5076311;28;20488;-56
2021/10/22 16:20:47;;;;;;;2.17;0.90;;;;;;;;;;5052794;28;20347;-56
2021/10/22 16:23:45;;;;;;;5.40;1.52;;;;;;;;;;5077208;28;20115;-56
2021/10/22 16:35:52;;;;;;;2.17;0.82;;;;;;;;;;5054480;28;20052;-56
2021/10/22 16:41:50;;;;;;;;;;;;;;;;;;;;;
2021/10/22 16:47:47;;;;;;;3.33;1.05;;;;;;;;;;5074391;28;20055;-56
2021/10/22 16:50:36;;;;;;;4.65;1.42;;;;;;;;;;5074530;28;20482;-57
2021/10/22 16:53:13;;;;;;;2.95;1.50;;;;;;;;;;5042513;28;20555;-55
2021/10/22 16:56:06;;;;;;;2.50;1.25;;;;;;;;;;5057767;28;20120;-56
2021/10/22 16:58:47;;;;;;;1.35;0.82;;;;;;;;;;5032161;28;20446;-53
2021/10/22 17:04:56;;;;;;;3.75;0.60;;;;;;;;;;4981111;28;20496;-55
2021/10/22 17:07:29;;;;;;;3.28;1.17;;;;;;;;;;5059260;28;20043;-56
2021/10/22 17:10:30;;;;;;;3.45;1.15;;;;;;;;;;5058039;28;20044;-55
2021/10/22 17:18:54;;;;;;;3.65;1.45;;;;;;;;;;5075627;28;20051;-54
2021/10/22 17:24:55;;;;;;;2.10;1.00;;;;;;;;;;5030672;28;20438;-53
2021/10/22 17:27:42;;;;;;;2.25;1.15;;;;;;;;;;5056995;28;20040;-56
2021/10/22 17:33:55;;;;;;;9.73;2.10;;;;;;;;;;4987975;28;20038;-55
2021/10/22 17:36:48;;;;;;;3.58;1.30;;;;;;;;;;4945354;29;20524;-57
2021/10/22 17:39:27;;;;;;;2.67;1.38;;;;;;;;;;4935703;29;20111;-56
2021/10/22 17:42:16;;;;;;;6.43;2.05;;;;;;;;;;4991215;28;20038;-56
2021/10/22 17:51:21;;;;;;;4.00;1.90;;;;;;;;;;4946597;29;20049;-57
2021/10/22 17:54:26;;;;;;;5.35;1.92;;;;;;;;;;4954805;29;20410;-58
2021/10/22 17:57:13;;;;;;;5.70;1.83;;;;;;;;;;4915986;29;20040;-58
2021/10/22 17:59:56;;;;;;;12.75;2.15;;;;;;;;;;4900660;29;20044;-57
2021/10/22 18:02:28;;;;;;;5.30;2.38;;;;;;;;;;4976518;28;20034;-56
2021/10/22 18:05:05;;;;;;;3.83;1.30;;;;;;;;;;4984033;28;20555;-57
2021/10/22 18:10:43;;;;;;;2.92;1.63;;;;;;;;;;5064726;28;20035;-57
2021/10/22 18:16:31;;;;;;;3.53;2.00;;;;;;;;;;5056466;28;20055;-54
2021/10/22 18:25:22;;;;;;;3.80;1.67;;;;;;;;;;5070146;28;20075;-56
2021/10/22 18:27:49;;;;;;;2.55;1.25;;;;;;;;;;5055904;28;20501;-53
2021/10/22 18:30:25;;;;;;;1.67;0.93;;;;;;;;;;5052915;28;20029;-56
2021/10/22 18:33:47;;;;;;;2.90;0.70;;;;;;;;;;5074335;28;20052;-56
2021/10/22 18:39:31;;;;;;;4.35;1.25;;;;;;;;;;5074774;28;20044;-52
2021/10/22 18:41:57;;;;;;;2.53;1.25;;;;;;;;;;5074615;28;20017;-54
2021/10/22 18:50:39;;;;;;;7.22;2.10;;;;;;;;;;5054027;28;20044;-53
2021/10/22 18:53:15;;;;;;;7.05;1.65;;;;;;;;;;5015112;28;20390;-53
2021/10/22 18:58:53;;;;;;;4.65;1.80;;;;;;;;;;5054224;28;20159;-55
2021/10/22 19:04:51;;;;;;;5.88;3.17;;;;;;;;;;5053962;28;20031;-56
2021/10/22 19:10:42;;;;;;;2.78;1.70;;;;;;;;;;5012053;28;20054;-57
2021/10/22 19:15:56;;;;;;;5.57;2.30;;;;;;;;;;5016042;28;20076;-56
2021/10/22 19:18:43;;;;;;;5.20;2.92;;;;;;;;;;5010338;28;20030;-56
2021/10/22 19:21:10;;;;;;;9.95;2.40;;;;;;;;;;5015909;28;20038;-56
2021/10/22 19:26:54;;;;;;;3.00;1.25;;;;;;;;;;5033668;28;20482;-55
2021/10/22 19:32:46;;;;;;;2.60;1.53;;;;;;;;;;5058428;28;20548;-54
2021/10/22 19:37:57;;;;;;;2.47;1.40;;;;;;;;;;5057935;28;20056;-55
2021/10/22 19:40:45;;;;;;;3.00;1.60;;;;;;;;;;5057710;28;20531;-56
2021/10/22 19:43:33;;;;;;;;;;;;;;;;;;;;;
2021/10/22 19:49:34;;;;;;;6.53;2.47;;;;;;;;;;5047621;28;20044;-56
2021/10/22 19:58:46;;;;;;;5.95;3.00;;;;;;;;;;5076855;28;20035;-55
2021/10/22 20:07:36;;;;;;;6.38;2.85;;;;;;;;;;5072418;28;20039;-57
2021/10/22 20:10:54;;;;;;;;;;;;;;;;;;;;;
2021/10/22 20:13:36;;;;;;;;;;;;;;;;;;;;;
2021/10/22 20:16:12;;;;;;;4.13;1.65;;;;;;;;;;5076515;28;20359;-57
2021/10/22 20:19:19;;;;;;;7.78;2.58;;;;;;;;;;5076748;28;20532;-57
2021/10/22 20:21:53;;;;;;;3.47;2.35;;;;;;;;;;5048808;28;20474;-53
2021/10/22 20:24:48;;;;;;;3.53;2.80;;;;;;;;;;5057412;28;20417;-58
2021/10/22 20:27:15;;;;;;;5.38;2.08;;;;;;;;;;5076230;28;20028;-57
2021/10/22 20:30:05;;;;;;;4.07;2.03;;;;;;;;;;5076679;28;20465;-57
2021/10/22 20:36:06;;;;;;;3.97;1.85;;;;;;;;;;5076190;28;20044;-57
2021/10/22 20:38:49;;;;;;;2.58;1.92;;;;;;;;;;5057983;28;20063;-58
2021/10/22 20:41:34;;;;;;;6.10;1.95;;;;;;;;;;5076690;28;20028;-56
2021/10/22 20:44:25;;;;;;;5.95;2.58;;;;;;;;;;5056478;28;20082;-58
2021/10/22 20:47:32;;;;;;;5.05;1.42;;;;;;;;;;5032623;28;20136;-57
2021/10/22 20:58:52;;;;;;;6.10;2.30;;;;;;;;;;5033790;28;20033;-57
2021/10/22 21:01:33;;;;;;;2.95;1.50;;;;;;;;;;5023497;28;20029;-58
2021/10/22 21:04:09;;;;;;;2.13;1.38;;;;;;;;;;4989333;28;20035;-58
2021/10/22 21:06:44;;;;;;;6.30;2.13;;;;;;;;;;4989532;28;20074;-58
2021/10/22 21:09:46;;;;;;;6.93;1.75;;;;;;;;;;4989198;28;20046;-58
2021/10/22 21:12:22;;;;;;;2.75;1.23;;;;;;;;;;5020729;28;20033;-56
2021/10/22 21:18:16;;;;;;;3.75;1.80;;;;;;;;;;4949976;29;20032;-57
2021/10/22 21:21:03;;;;;;;2.17;1.38;;;;;;;;;;4953847;28;20037;-57
2021/10/22 21:23:39;;;;;;;5.68;2.40;;;;;;;;;;5028261;28;20141;-58
2021/10/22 21:26:27;;;;;;;3.33;1.17;;;;;;;;;;5011374;28;20072;-57
2021/10/22 21:29:20;;;;;;;2.83;2.05;;;;;;;;;;4988503;28;20034;-57
2021/10/22 21:32:24;;;;;;;2.67;1.50;;;;;;;;;;4969941;29;20043;-56
2021/10/22 21:35:07;;;;;;;;;;;;;;;;;;;;;
2021/10/22 21:37:45;;;;;;;5.70;2.20;;;;;;;;;;5027824;28;20085;-58
2021/10/22 21:40:53;;;;;;;3.80;1.52;;;;;;;;;;5028322;28;20093;-57
2021/10/22 21:46:39;;;;;;;;;;;;;;;;;;;;;
2021/10/22 22:02:05;;;;;;;4.43;1.73;;;;;;;;;;5063380;28;20437;-58
2021/10/22 22:04:45;;;;;;;2.15;1.25;;;;;;;;;;5089106;28;20082;-56
2021/10/22 22:07:19;;;;;;;6.28;1.70;;;;;;;;;;5089070;28;20056;-57
2021/10/22 22:10:27;;;;;;;2.42;1.35;;;;;;;;;;5089312;28;20028;-57
2021/10/22 22:13:08;;;;;;;4.07;1.20;;;;;;;;;;5089342;28;20048;-58
2021/10/22 22:15:47;;;;;;;2.58;1.42;;;;;;;;;;5089815;28;20025;-58
2021/10/22 22:18:20;;;;;;;5.15;1.48;;;;;;;;;;5069813;28;20039;-58
2021/10/22 22:24:20;;;;;;;2.95;0.93;;;;;;;;;;5008015;28;20507;-58
2021/10/22 22:27:01;;;;;;;3.90;1.42;;;;;;;;;;5007672;28;20034;-57
2021/10/22 22:29:46;;;;;;;4.43;1.58;;;;;;;;;;4990693;28;20370;-58
2021/10/22 22:35:20;;;;;;;2.03;1.23;;;;;;;;;;5007967;28;20046;-57
2021/10/22 22:38:11;;;;;;;4.03;1.35;;;;;;;;;;4937539;29;20031;-58
2021/10/22 22:41:01;;;;;;;2.10;1.17;;;;;;;;;;4968904;29;20035;-57
2021/10/22 22:43:41;;;;;;;2.65;1.42;;;;;;;;;;4968660;29;20706;-58
2021/10/22 22:49:05;;;;;;;4.85;1.83;;;;;;;;;;4993751;28;20042;-58
2021/10/22 22:51:47;;;;;;;3.83;1.30;;;;;;;;;;5011305;28;20030;-57
2021/10/22 22:54:40;;;;;;;4.28;1.63;;;;;;;;;;5011523;28;20030;-58
2021/10/22 22:57:25;;;;;;;4.72;1.45;;;;;;;;;;5002705;28;20045;-58
2021/10/22 23:03:00;;;;;;;3.85;0.75;;;;;;;;;;5011811;28;20040;-58
2021/10/22 23:08:25;;;;;;;2.83;1.17;;;;;;;;;;5030698;28;20558;-58
2021/10/22 23:11:23;;;;;;;2.25;1.00;;;;;;;;;;5072349;28;20041;-58
2021/10/22 23:14:09;;;;;;;3.83;1.42;;;;;;;;;;5072978;28;20036;-57
2021/10/22 23:16:51;;;;;;;2.53;1.33;;;;;;;;;;5041781;28;20029;-57
2021/10/22 23:19:44;;;;;;;6.03;1.67;;;;;;;;;;5071803;28;20040;-57
2021/10/22 23:22:43;;;;;;;3.03;1.33;;;;;;;;;;5052455;28;20071;-58
2021/10/22 23:25:24;;;;;;;2.67;1.55;;;;;;;;;;5054569;28;20037;-58
2021/10/22 23:33:53;;;;;;;3.83;1.45;;;;;;;;;;5072225;28;20040;-58
2021/10/22 23:36:28;;;;;;;3.40;1.55;;;;;;;;;;5054955;28;20025;-57
2021/10/22 23:39:16;;;;;;;5.53;1.30;;;;;;;;;;5072048;28;20028;-58
2021/10/22 23:41:44;;;;;;;6.15;1.52;;;;;;;;;;5072447;28;20040;-56
2021/10/22 23:47:25;;;;;;;5.03;1.52;;;;;;;;;;5075275;28;20079;-57
2021/10/22 23:53:00;;;;;;;5.13;1.80;;;;;;;;;;5086841;28;20035;-58
2021/10/22 23:55:34;;;;;;;3.40;1.88;;;;;;;;;;5091472;28;20024;-58
2021/10/22 23:58:21;;;;;;;4.43;1.42;;;;;;;;;;5091137;28;20025;-57
